createdAt,value
2018-06-04T00:00:51.790Z,21.90
2018-06-04T00:03:22.438Z,21.89
2018-06-04T00:05:53.704Z,21.84
2018-06-04T00:08:24.332Z,21.78
2018-06-04T00:10:56.098Z,21.82
2018-06-04T00:13:26.811Z,21.82
2018-06-04T00:15:57.537Z,21.97
2018-06-04T00:18:28.321Z,21.91
2018-06-04T00:20:59.001Z,21.96
2018-06-04T00:23:29.634Z,22.15
2018-06-04T00:26:00.342Z,22.14
2018-06-04T00:28:31.050Z,22.05
2018-06-04T00:31:01.729Z,22.01
2018-06-04T00:33:31.921Z,21.97
2018-06-04T00:36:02.815Z,21.84
2018-06-04T00:38:33.474Z,21.87
2018-06-04T00:41:04.307Z,21.73
2018-06-04T00:43:35.045Z,21.71
2018-06-04T00:46:06.027Z,21.69
2018-06-04T00:48:36.718Z,21.63
2018-06-04T00:51:07.448Z,21.48
2018-06-04T00:53:38.179Z,21.38
2018-06-04T00:56:22.143Z,21.19
2018-06-04T00:58:52.817Z,21.02
2018-06-04T01:01:23.838Z,21.04
2018-06-04T01:03:54.410Z,20.97
2018-06-04T01:06:25.374Z,20.93
2018-06-04T01:08:55.917Z,20.92
2018-06-04T01:11:26.478Z,20.97
2018-06-04T01:13:57.206Z,21.01
2018-06-04T01:16:27.929Z,21.20
2018-06-04T01:18:58.672Z,21.29
2018-06-04T01:21:29.304Z,21.28
2018-06-04T01:23:59.918Z,21.21
2018-06-04T01:26:30.569Z,21.22
2018-06-04T01:29:01.250Z,21.23
2018-06-04T01:31:32.070Z,21.19
2018-06-04T01:34:02.778Z,21.08
2018-06-04T01:36:33.505Z,21.04
2018-06-04T01:39:03.981Z,20.99
2018-06-04T01:41:34.874Z,20.94
2018-06-04T01:44:05.745Z,21.07
2018-06-04T01:46:36.803Z,21.21
2018-06-04T01:49:07.429Z,21.25
2018-06-04T01:51:38.190Z,21.19
2018-06-04T01:54:08.714Z,21.07
2018-06-04T01:56:39.431Z,20.97
2018-06-04T01:59:10.037Z,20.94
2018-06-04T02:01:41.058Z,20.90
2018-06-04T02:04:11.638Z,21.09
2018-06-04T02:06:42.318Z,21.18
2018-06-04T02:09:12.925Z,21.28
2018-06-04T02:11:43.214Z,21.36
2018-06-04T02:14:13.841Z,21.24
2018-06-04T02:16:44.672Z,21.09
2018-06-04T02:19:15.369Z,21.34
2018-06-04T02:21:46.455Z,21.25
2018-06-04T02:24:17.138Z,21.31
2018-06-04T02:26:47.857Z,21.22
2018-06-04T02:29:18.553Z,21.20
2018-06-04T02:31:49.233Z,21.21
2018-06-04T02:34:19.916Z,21.23
2018-06-04T02:36:50.577Z,21.25
2018-06-04T02:39:21.282Z,21.38
2018-06-04T02:41:52.098Z,21.32
2018-06-04T02:44:22.756Z,21.07
2018-06-04T02:46:53.565Z,21.13
2018-06-04T02:49:24.209Z,21.18
2018-06-04T02:51:54.775Z,21.17
2018-06-04T02:54:25.539Z,21.00
2018-06-04T02:56:56.290Z,20.95
2018-06-04T02:59:26.954Z,21.11
2018-06-04T03:01:57.638Z,21.21
2018-06-04T03:04:27.817Z,21.18
2018-06-04T03:06:58.233Z,21.44
2018-06-04T03:09:28.856Z,21.55
2018-06-04T03:12:00.670Z,21.58
2018-06-04T03:14:31.399Z,21.49
2018-06-04T03:17:02.214Z,21.54
2018-06-04T03:19:32.216Z,21.47
2018-06-04T03:22:04.482Z,21.60
2018-06-04T03:24:35.234Z,21.62
2018-06-04T03:27:06.299Z,21.46
2018-06-04T03:29:36.981Z,21.37
2018-06-04T03:32:07.742Z,21.45
2018-06-04T03:34:38.444Z,21.51
2018-06-04T03:37:09.270Z,21.60
2018-06-04T03:39:39.971Z,21.53
2018-06-04T03:42:10.701Z,21.45
2018-06-04T03:44:41.431Z,21.41
2018-06-04T03:47:12.360Z,21.38
2018-06-04T03:49:43.041Z,21.58
2018-06-04T03:52:14.090Z,21.64
2018-06-04T03:54:44.819Z,21.72
2018-06-04T03:57:16.110Z,21.76
2018-06-04T03:59:46.722Z,21.80
2018-06-04T04:02:17.474Z,21.71
2018-06-04T04:04:48.042Z,21.75
2018-06-04T04:07:18.669Z,22.15
2018-06-04T04:09:49.374Z,22.26
2018-06-04T04:12:20.109Z,22.41
2018-06-04T04:14:50.682Z,22.29
2018-06-04T04:17:21.372Z,22.22
2018-06-04T04:19:52.067Z,22.58
2018-06-04T04:22:23.218Z,22.60
2018-06-04T04:24:53.887Z,22.49
2018-06-04T04:27:24.869Z,22.61
2018-06-04T04:29:55.538Z,22.75
2018-06-04T04:32:26.374Z,22.80
2018-06-04T04:34:57.005Z,22.72
2018-06-04T04:37:27.770Z,22.97
2018-06-04T04:39:58.428Z,23.08
2018-06-04T04:42:29.275Z,23.44
2018-06-04T04:44:59.906Z,23.78
2018-06-04T04:47:30.738Z,24.09
2018-06-04T04:50:01.379Z,24.44
2018-06-04T04:52:32.050Z,24.93
2018-06-04T04:55:02.149Z,25.20
2018-06-04T04:57:32.754Z,25.64
2018-06-04T05:00:03.540Z,25.72
2018-06-04T05:02:34.574Z,25.93
2018-06-04T05:05:05.421Z,25.65
2018-06-04T05:07:36.154Z,25.92
2018-06-04T05:10:06.883Z,26.41
2018-06-04T05:12:37.345Z,26.47
2018-06-04T05:15:08.053Z,26.89
2018-06-04T05:17:38.914Z,27.01
2018-06-04T05:20:09.614Z,27.16
2018-06-04T05:22:41.686Z,26.77
2018-06-04T05:25:12.367Z,26.84
2018-06-04T05:27:43.257Z,27.19
2018-06-04T05:30:14.044Z,27.37
2018-06-04T05:32:44.806Z,27.50
2018-06-04T05:35:15.451Z,27.81
2018-06-04T05:37:46.190Z,28.06
2018-06-04T05:40:16.654Z,27.97
2018-06-04T05:42:47.473Z,28.11
2018-06-04T05:45:18.129Z,28.23
2018-06-04T05:47:48.813Z,28.64
2018-06-04T05:50:19.489Z,28.76
2018-06-04T05:52:50.271Z,29.07
2018-06-04T05:55:20.469Z,28.92
2018-06-04T05:57:51.110Z,29.11
2018-06-04T06:00:21.823Z,29.19
2018-06-04T06:02:52.629Z,29.69
2018-06-04T06:05:23.394Z,29.62
2018-06-04T06:07:54.262Z,29.55
2018-06-04T06:10:24.877Z,29.40
2018-06-04T06:12:55.686Z,29.91
2018-06-04T06:15:26.434Z,29.89
2018-06-04T06:17:57.196Z,30.36
2018-06-04T06:20:27.867Z,30.60
2018-06-04T06:22:59.070Z,30.39
2018-06-04T06:25:29.717Z,30.40
2018-06-04T06:28:00.406Z,30.92
2018-06-04T06:30:31.080Z,30.72
2018-06-04T06:33:02.175Z,31.31
2018-06-04T06:35:32.742Z,31.35
2018-06-04T06:38:04.682Z,31.18
2018-06-04T06:40:35.397Z,31.45
2018-06-04T06:43:06.190Z,31.74
2018-06-04T06:45:36.871Z,31.48
2018-06-04T06:48:07.806Z,32.04
2018-06-04T06:50:38.482Z,32.70
2018-06-04T06:53:08.745Z,32.52
2018-06-04T06:55:39.505Z,32.47
2018-06-04T06:58:10.577Z,32.17
2018-06-04T07:00:41.268Z,32.88
2018-06-04T07:03:11.866Z,32.71
2018-06-04T07:05:42.170Z,32.59
2018-06-04T07:08:13.138Z,33.16
2018-06-04T07:10:43.893Z,32.94
2018-06-04T07:13:15.510Z,32.75
2018-06-04T07:15:45.853Z,32.92
2018-06-04T07:18:16.591Z,33.32
2018-06-04T07:20:46.958Z,33.16
2018-06-04T07:23:17.234Z,33.42
2018-06-04T07:25:47.576Z,33.65
2018-06-04T07:28:17.841Z,33.77
2018-06-04T07:30:48.235Z,34.39
2018-06-04T07:33:18.514Z,34.00
2018-06-04T07:35:48.954Z,34.03
2018-06-04T07:38:19.225Z,34.06
2018-06-04T07:40:49.578Z,34.17
2018-06-04T07:43:19.847Z,34.30
2018-06-04T07:45:50.338Z,34.78
2018-06-04T07:48:20.605Z,34.99
2018-06-04T07:50:51.029Z,34.76
2018-06-04T07:53:21.302Z,34.94
2018-06-04T07:55:51.750Z,34.46
2018-06-04T07:58:22.513Z,34.55
2018-06-04T08:00:52.879Z,34.68
2018-06-04T08:03:23.130Z,34.74
2018-06-04T08:05:53.896Z,35.13
2018-06-04T08:08:24.154Z,35.85
2018-06-04T08:10:55.107Z,35.33
2018-06-04T08:13:25.490Z,35.59
2018-06-04T08:15:56.276Z,35.47
2018-06-04T08:18:26.941Z,35.78
2018-06-04T08:20:57.277Z,36.18
2018-06-04T08:23:27.839Z,35.84
2018-06-04T08:25:58.362Z,35.75
2018-06-04T08:28:28.696Z,36.34
2018-06-04T08:30:59.026Z,36.50
2018-06-04T08:33:29.305Z,37.13
2018-06-04T08:36:00.269Z,36.41
2018-06-04T08:38:30.991Z,36.45
2018-06-04T08:41:01.944Z,36.80
2018-06-04T08:43:32.378Z,37.50
2018-06-04T08:46:03.055Z,37.53
2018-06-04T08:48:33.597Z,37.86
2018-06-04T08:51:04.534Z,37.19
2018-06-04T08:53:35.168Z,37.56
2018-06-04T08:56:05.510Z,37.63
2018-06-04T08:58:35.871Z,37.21
2018-06-04T09:01:06.326Z,37.17
2018-06-04T09:03:36.631Z,37.12
2018-06-04T09:06:07.162Z,37.34
2018-06-04T09:08:37.517Z,37.41
2018-06-04T09:11:08.009Z,38.20
2018-06-04T09:13:38.729Z,39.04
2018-06-04T09:16:09.411Z,38.70
2018-06-04T09:18:40.100Z,38.60
2018-06-04T09:21:10.834Z,38.13
2018-06-04T09:23:41.573Z,38.22
2018-06-04T09:26:12.302Z,37.56
2018-06-04T09:28:43.342Z,36.70
2018-06-04T09:31:14.010Z,36.57
2018-06-04T09:33:45.051Z,37.01
2018-06-04T09:36:15.790Z,37.67
2018-06-04T09:38:46.221Z,38.15
2018-06-04T09:41:16.959Z,37.35
2018-06-04T09:43:47.517Z,38.65
2018-06-04T09:46:18.067Z,38.69
2018-06-04T09:48:49.111Z,39.12
2018-06-04T09:51:19.780Z,38.51
2018-06-04T09:53:50.481Z,39.10
2018-06-04T09:56:20.803Z,39.38
2018-06-04T09:58:51.683Z,38.90
2018-06-04T10:01:22.417Z,38.73
2018-06-04T10:03:52.974Z,38.76
2018-06-04T10:06:23.289Z,37.76
2018-06-04T10:08:53.610Z,38.56
2018-06-04T10:11:23.950Z,38.82
2018-06-04T10:13:54.539Z,37.60
2018-06-04T10:16:25.375Z,38.14
2018-06-04T10:18:56.385Z,38.02
2018-06-04T10:21:27.171Z,39.29
2018-06-04T10:23:58.171Z,39.55
2018-06-04T10:26:29.047Z,38.53
2018-06-04T10:28:59.615Z,38.56
2018-06-04T10:31:30.035Z,39.75
2018-06-04T10:34:00.512Z,36.79
2018-06-04T10:36:30.823Z,36.53
2018-06-04T10:39:01.335Z,37.27
2018-06-04T10:41:31.803Z,38.57
2018-06-04T10:44:02.887Z,39.20
2018-06-04T10:46:33.750Z,38.17
2018-06-04T10:49:04.623Z,38.45
2018-06-04T10:51:35.475Z,38.12
2018-06-04T10:54:06.387Z,37.80
2018-06-04T10:56:37.611Z,38.60
2018-06-04T10:59:56.001Z,38.74
2018-06-04T11:02:26.843Z,38.78
2018-06-04T11:04:57.869Z,38.56
2018-06-04T11:07:28.343Z,38.01
2018-06-04T11:09:59.283Z,38.22
2018-06-04T11:12:30.186Z,38.70
2018-06-04T11:15:01.235Z,38.67
2018-06-04T11:17:32.111Z,38.69
2018-06-04T11:20:02.963Z,38.62
2018-06-04T11:22:33.475Z,39.25
2018-06-04T11:25:04.733Z,38.89
2018-06-04T11:27:35.218Z,38.49
2018-06-04T11:30:06.532Z,38.92
2018-06-04T11:32:37.093Z,38.33
2018-06-04T11:35:08.623Z,38.64
2018-06-04T11:37:39.121Z,38.30
2018-06-04T11:40:09.682Z,38.62
2018-06-04T11:42:40.706Z,38.38
2018-06-04T11:45:11.728Z,39.25
2018-06-04T11:47:42.487Z,39.03
2018-06-04T11:50:13.216Z,38.88
2018-06-04T11:52:43.694Z,38.90
2018-06-04T11:55:14.646Z,38.48
2018-06-04T11:57:45.422Z,39.06
2018-06-04T12:00:16.114Z,38.74
2018-06-04T12:02:46.518Z,37.95
2018-06-04T12:05:17.017Z,36.24
2018-06-04T12:07:47.433Z,36.58
2018-06-04T12:10:18.014Z,36.38
2018-06-04T12:12:48.766Z,36.44
2018-06-04T12:15:19.425Z,35.99
2018-06-04T12:17:49.529Z,35.77
2018-06-04T12:20:20.550Z,35.85
2018-06-04T12:22:51.259Z,36.06
2018-06-04T12:25:22.158Z,35.68
2018-06-04T12:27:52.410Z,35.41
2018-06-04T12:30:23.366Z,35.74
2018-06-04T12:32:53.702Z,35.74
2018-06-04T12:35:24.308Z,35.10
2018-06-04T12:37:54.992Z,34.31
2018-06-04T12:40:25.602Z,34.51
2018-06-04T12:42:55.937Z,34.69
2018-06-04T12:45:28.408Z,34.56
2018-06-04T12:47:58.785Z,34.82
2018-06-04T12:50:29.097Z,34.25
2018-06-04T12:52:59.425Z,34.25
2018-06-04T12:55:29.760Z,34.64
2018-06-04T12:58:00.560Z,35.77
2018-06-04T13:00:30.928Z,36.96
2018-06-04T13:03:01.309Z,37.14
2018-06-04T13:05:31.722Z,37.15
2018-06-04T13:08:02.097Z,37.82
2018-06-04T13:10:32.421Z,37.50
2018-06-04T13:13:02.865Z,37.43
2018-06-04T13:15:33.339Z,38.71
2018-06-04T13:18:05.124Z,38.87
2018-06-04T13:20:36.689Z,38.93
2018-06-04T13:23:07.433Z,38.68
2018-06-04T13:25:38.009Z,38.21
2018-06-04T13:28:08.523Z,38.48
2018-06-04T13:30:38.936Z,38.90
2018-06-04T13:33:09.435Z,39.16
2018-06-04T13:35:39.800Z,39.70
2018-06-04T13:38:10.230Z,40.26
2018-06-04T13:40:40.598Z,39.97
2018-06-04T13:43:11.358Z,39.34
2018-06-04T13:45:44.310Z,39.74
2018-06-04T13:48:14.863Z,39.79
2018-06-04T13:50:45.249Z,38.77
2018-06-04T13:53:15.700Z,39.15
2018-06-04T13:55:46.547Z,39.02
2018-06-04T13:58:16.865Z,39.04
2018-06-04T14:00:47.625Z,37.98
2018-06-04T14:03:17.957Z,36.13
2018-06-04T14:05:48.398Z,36.75
2018-06-04T14:08:18.746Z,37.52
2018-06-04T14:10:49.123Z,37.85
2018-06-04T14:13:19.442Z,37.97
2018-06-04T14:15:49.888Z,37.79
2018-06-04T14:18:21.206Z,38.24
2018-06-04T14:20:51.683Z,38.36
2018-06-04T14:23:22.147Z,38.66
2018-06-04T14:25:52.786Z,38.90
2018-06-04T14:28:23.172Z,38.72
2018-06-04T14:30:53.796Z,39.12
2018-06-04T14:33:24.214Z,38.51
2018-06-04T14:35:54.982Z,38.68
2018-06-04T14:38:25.315Z,38.99
2018-06-04T14:40:56.478Z,38.47
2018-06-04T14:43:26.834Z,38.32
2018-06-04T14:45:58.442Z,38.69
2018-06-04T14:48:28.806Z,38.80
2018-06-04T14:50:59.561Z,38.21
2018-06-04T14:53:30.024Z,38.12
2018-06-04T14:56:00.698Z,37.72
2018-06-04T14:58:31.250Z,37.08
2018-06-04T15:01:01.675Z,36.19
2018-06-04T15:03:32.111Z,35.57
2018-06-04T15:06:02.786Z,34.74
2018-06-04T15:08:33.146Z,34.72
2018-06-04T15:11:03.637Z,34.12
2018-06-04T15:13:34.005Z,33.45
2018-06-04T15:16:04.685Z,33.12
2018-06-04T15:18:34.976Z,32.48
2018-06-04T15:21:05.538Z,32.69
2018-06-04T15:23:35.834Z,33.15
2018-06-04T15:26:06.215Z,33.23
2018-06-04T15:28:36.570Z,33.34
2018-06-04T15:31:07.446Z,33.33
2018-06-04T15:33:37.813Z,33.29
2018-06-04T15:36:08.217Z,33.23
2018-06-04T15:38:38.525Z,33.56
2018-06-04T15:41:08.909Z,33.81
2018-06-04T15:43:39.274Z,33.44
2018-06-04T15:46:10.067Z,33.33
2018-06-04T15:48:40.415Z,34.07
2018-06-04T15:51:11.288Z,34.28
2018-06-04T15:53:41.614Z,34.47
2018-06-04T15:56:12.229Z,34.74
2018-06-04T15:58:42.647Z,34.65
2018-06-04T16:01:13.033Z,34.70
2018-06-04T16:03:43.383Z,33.78
2018-06-04T16:06:13.785Z,33.20
2018-06-04T16:08:44.109Z,33.58
2018-06-04T16:11:14.674Z,33.22
2018-06-04T16:13:44.981Z,33.62
2018-06-04T16:16:15.381Z,33.97
2018-06-04T16:18:45.715Z,33.87
2018-06-04T16:21:16.111Z,34.23
2018-06-04T16:23:46.470Z,34.01
2018-06-04T16:26:17.091Z,34.32
2018-06-04T16:28:47.398Z,34.33
2018-06-04T16:31:17.841Z,34.20
2018-06-04T16:33:48.167Z,34.38
2018-06-04T16:36:18.791Z,34.38
2018-06-04T16:38:49.144Z,34.24
2018-06-04T16:41:19.905Z,33.83
2018-06-04T16:43:50.277Z,33.63
2018-06-04T16:46:20.713Z,33.61
2018-06-04T16:48:51.091Z,33.25
2018-06-04T16:51:22.181Z,33.05
2018-06-04T16:53:52.501Z,32.96
2018-06-04T16:56:23.233Z,32.62
2018-06-04T16:58:53.597Z,32.24
2018-06-04T17:01:24.292Z,31.88
2018-06-04T17:03:54.633Z,31.68
2018-06-04T17:06:25.181Z,31.11
2018-06-04T17:08:55.505Z,30.91
2018-06-04T17:11:25.858Z,30.66
2018-06-04T17:13:56.183Z,30.39
2018-06-04T17:16:26.647Z,30.35
2018-06-04T17:18:56.998Z,30.17
2018-06-04T17:21:27.310Z,30.04
2018-06-04T17:23:57.633Z,29.95
2018-06-04T17:26:28.954Z,29.90
2018-06-04T17:28:59.350Z,29.98
2018-06-04T17:31:29.705Z,29.96
2018-06-04T17:34:00.152Z,29.86
2018-06-04T17:36:30.449Z,29.75
2018-06-04T17:39:01.007Z,29.57
2018-06-04T17:41:31.306Z,29.48
2018-06-04T17:44:01.883Z,29.44
2018-06-04T17:46:31.760Z,29.50
2018-06-04T17:49:02.121Z,29.53
2018-06-04T17:51:32.629Z,29.54
2018-06-04T17:54:02.905Z,29.38
2018-06-04T17:56:33.202Z,29.39
2018-06-04T17:59:03.772Z,29.28
2018-06-04T18:01:34.108Z,29.14
2018-06-04T18:04:05.024Z,29.20
2018-06-04T18:06:35.326Z,29.19
2018-06-04T18:09:08.630Z,29.23
2018-06-04T18:11:39.069Z,29.30
2018-06-04T18:14:09.660Z,29.37
2018-06-04T18:16:39.945Z,29.34
2018-06-04T18:19:10.335Z,29.31
2018-06-04T18:21:40.658Z,29.22
2018-06-04T18:24:11.089Z,29.31
2018-06-04T18:26:41.601Z,29.11
2018-06-04T18:29:11.950Z,28.88
2018-06-04T18:31:42.245Z,28.67
2018-06-04T18:34:12.674Z,28.57
2018-06-04T18:36:42.949Z,28.55
2018-06-04T18:39:13.322Z,28.44
2018-06-04T18:41:43.654Z,28.15
2018-06-04T18:44:13.961Z,27.98
2018-06-04T18:46:44.402Z,28.06
2018-06-04T18:49:14.797Z,27.99
2018-06-04T18:51:45.139Z,28.03
2018-06-04T18:54:15.857Z,27.74
2018-06-04T18:56:46.145Z,27.82
2018-06-04T18:59:16.560Z,27.90
2018-06-04T19:01:46.955Z,27.96
2018-06-04T19:04:17.946Z,27.74
2018-06-04T19:06:48.677Z,27.68
2018-06-04T19:09:19.709Z,27.78
2018-06-04T19:11:50.402Z,27.77
2018-06-04T19:14:21.213Z,28.05
2018-06-04T19:16:51.920Z,28.26
2018-06-04T19:19:22.757Z,28.75
2018-06-04T19:21:53.041Z,28.80
2018-06-04T19:24:23.469Z,28.22
2018-06-04T19:26:53.827Z,27.60
2018-06-04T19:29:24.726Z,27.40
2018-06-04T19:31:55.055Z,27.20
2018-06-04T19:34:25.493Z,26.96
2018-06-04T19:36:55.834Z,26.72
2018-06-04T19:39:26.210Z,26.54
2018-06-04T19:41:56.494Z,26.42
2018-06-04T19:44:27.280Z,26.17
2018-06-04T19:46:58.158Z,25.95
2018-06-04T19:49:28.854Z,25.79
2018-06-04T19:51:59.574Z,25.72
2018-06-04T19:54:30.347Z,25.78
2018-06-04T19:57:01.046Z,25.91
2018-06-04T19:59:31.674Z,25.74
2018-06-04T20:02:02.367Z,25.83
2018-06-04T20:04:33.173Z,25.97
2018-06-04T20:07:03.819Z,25.95
2018-06-04T20:09:34.609Z,26.10
2018-06-04T20:12:05.153Z,26.14
2018-06-04T20:14:35.649Z,26.00
2018-06-04T20:17:06.245Z,25.88
2018-06-04T20:19:36.850Z,25.76
2018-06-04T20:22:07.485Z,25.29
2018-06-04T20:24:38.379Z,24.75
2018-06-04T20:27:08.912Z,24.51
2018-06-04T20:29:39.711Z,24.95
2018-06-04T20:32:10.339Z,25.11
2018-06-04T20:34:41.026Z,25.21
2018-06-04T20:37:11.755Z,25.34
2018-06-04T20:39:42.480Z,25.40
2018-06-04T20:42:13.186Z,25.59
2018-06-04T20:44:43.978Z,25.71
2018-06-04T20:47:14.741Z,25.89
2018-06-04T20:49:45.494Z,25.89
2018-06-04T20:52:16.358Z,25.84
2018-06-04T20:54:47.169Z,25.48
2018-06-04T20:57:17.926Z,25.03
2018-06-04T20:59:48.732Z,25.05
2018-06-04T21:02:19.006Z,24.87
2018-06-04T21:04:49.709Z,24.77
2018-06-04T21:07:20.229Z,24.73
2018-06-04T21:09:51.218Z,24.94
2018-06-04T21:12:21.857Z,24.88
2018-06-04T21:14:52.637Z,24.76
2018-06-04T21:17:23.338Z,24.77
2018-06-04T21:19:54.029Z,24.77
2018-06-04T21:22:24.366Z,24.78
2018-06-04T21:24:55.063Z,24.54
2018-06-04T21:27:25.449Z,24.69
2018-06-04T21:29:56.285Z,24.60
2018-06-04T21:32:26.913Z,24.41
2018-06-04T21:34:58.001Z,24.38
2018-06-04T21:37:28.694Z,24.30
2018-06-04T21:39:59.017Z,24.21
2018-06-04T21:42:29.468Z,24.16
2018-06-04T21:45:00.146Z,24.19
2018-06-04T21:47:31.161Z,24.17
2018-06-04T21:50:01.775Z,24.16
2018-06-04T21:52:32.506Z,24.16
2018-06-04T21:55:03.209Z,24.13
2018-06-04T21:57:33.910Z,24.03
2018-06-04T22:00:04.730Z,23.95
2018-06-04T22:02:35.521Z,23.98
2018-06-04T22:05:06.315Z,23.94
2018-06-04T22:07:36.863Z,23.89
2018-06-04T22:10:09.057Z,23.70
2018-06-04T22:12:39.835Z,23.66
2018-06-04T22:15:10.612Z,23.66
2018-06-04T22:17:41.311Z,23.58
2018-06-04T22:20:11.969Z,23.58
2018-06-04T22:22:42.772Z,23.54
2018-06-04T22:25:13.602Z,23.52
2018-06-04T22:27:44.333Z,23.54
2018-06-04T22:30:15.073Z,23.49
2018-06-04T22:32:45.780Z,23.43
2018-06-04T22:35:16.429Z,23.32
2018-06-04T22:37:47.178Z,23.24
2018-06-04T22:40:18.213Z,23.23
2018-06-04T22:42:48.941Z,23.24
2018-06-04T22:45:19.704Z,23.29
2018-06-04T22:47:50.369Z,23.42
2018-06-04T22:50:21.209Z,23.33
2018-06-04T22:52:51.842Z,23.34
2018-06-04T22:55:22.559Z,23.31
2018-06-04T22:57:53.196Z,23.13
2018-06-04T23:00:36.745Z,23.32
2018-06-04T23:03:07.308Z,23.41
2018-06-04T23:05:38.042Z,23.34
2018-06-04T23:08:08.656Z,23.26
2018-06-04T23:10:39.142Z,23.25
2018-06-04T23:13:09.781Z,23.17
2018-06-04T23:15:40.773Z,23.34
2018-06-04T23:18:11.364Z,23.26
2018-06-04T23:20:43.906Z,23.22
2018-06-04T23:23:14.448Z,23.08
2018-06-04T23:25:45.229Z,23.12
2018-06-04T23:28:15.901Z,23.16
2018-06-04T23:30:46.671Z,23.14
2018-06-04T23:33:17.385Z,23.11
2018-06-04T23:35:48.062Z,23.10
2018-06-04T23:38:18.160Z,23.09
2018-06-04T23:40:48.861Z,23.04
2018-06-04T23:43:19.669Z,23.00
2018-06-04T23:45:50.446Z,23.21
2018-06-04T23:48:21.134Z,23.26
2018-06-04T23:50:51.701Z,23.25
2018-06-04T23:53:22.592Z,23.09
2018-06-04T23:55:53.261Z,23.03
2018-06-04T23:58:24.006Z,23.03
